Terminal Aerodrome Forecast
Issued by NWS

Current Version | Previous Version | Text Only | Print | Product List | Glossary On
Versions: 1 2 3 4 5 6 7 8 9 10 11 12 13 14 15 16 17
000
FTUS41 KBUF 251730
TAFJHW
TAF
KJHW 251730Z 2518/2618 21014G19KT P6SM VCSH BKN045
     FM252300 21013KT P6SM BKN050
     FM260700 22011KT P6SM BKN045
     FM261000 22009KT P6SM BKN020
     FM261300 21009KT P6SM VCSH BKN035
     FM261700 20010G18KT 6SM -SHRA OVC070
      AMD LTD TO CLD VIS AND WIND=

USA.gov is the U.S. government's official web portal to all federal, state and local government web resources and services.